createdAt,value
2019-04-21T00:01:14.570Z,74.90
2019-04-21T00:03:51.271Z,74.60
2019-04-21T00:06:45.592Z,74.40
2019-04-21T00:09:19.305Z,73.90
2019-04-21T00:11:48.313Z,74.80
2019-04-21T00:14:08.976Z,74.20
2019-04-21T00:16:39.352Z,73.70
2019-04-21T00:19:19.098Z,73.80
2019-04-21T00:21:51.130Z,73.60
2019-04-21T00:24:28.834Z,73.60
2019-04-21T00:27:06.971Z,72.80
2019-04-21T00:32:10.191Z,73.40
2019-04-21T00:34:27.973Z,73.60
2019-04-21T00:37:11.401Z,73.90
2019-04-21T00:42:22.803Z,74.50
2019-04-21T00:44:54.233Z,74.50
2019-04-21T00:47:30.296Z,74.70
2019-04-21T00:50:02.368Z,73.60
2019-04-21T00:52:52.580Z,73.60
2019-04-21T00:58:18.342Z,72.70
2019-04-21T01:00:49.627Z,70.70
2019-04-21T01:03:14.490Z,70.70
2019-04-21T01:05:52.912Z,69.50
2019-04-21T01:08:23.117Z,70.50
2019-04-21T01:10:43.334Z,69.30
2019-04-21T01:13:29.421Z,67.20
2019-04-21T01:15:59.617Z,66.90
2019-04-21T01:18:29.474Z,65.70
2019-04-21T01:20:41.853Z,64.90
2019-04-21T01:23:12.857Z,64.70
2019-04-21T01:25:59.309Z,64.40
2019-04-21T01:28:34.399Z,63.50
2019-04-21T01:31:11.008Z,62.40
2019-04-21T01:33:44.725Z,62.40
2019-04-21T01:36:08.266Z,61.00
2019-04-21T01:38:48.304Z,62.20
2019-04-21T01:43:49.177Z,63.40
2019-04-21T01:46:24.577Z,63.10
2019-04-21T01:48:49.346Z,63.70
2019-04-21T01:51:32.131Z,63.50
2019-04-21T01:54:09.300Z,64.10
2019-04-21T01:56:56.978Z,65.00
2019-04-21T01:59:27.015Z,65.80
2019-04-21T02:02:08.067Z,67.00
2019-04-21T02:04:42.855Z,67.60
2019-04-21T02:07:11.531Z,67.90
2019-04-21T02:09:46.365Z,68.50
2019-04-21T02:12:20.693Z,65.40
2019-04-21T02:14:59.172Z,65.00
2019-04-21T02:17:23.918Z,64.50
2019-04-21T02:19:53.769Z,62.90
2019-04-21T02:22:35.323Z,63.80
2019-04-21T02:25:00.990Z,63.90
2019-04-21T02:27:31.770Z,63.50
2019-04-21T02:30:12.525Z,64.10
2019-04-21T02:32:55.673Z,63.20
2019-04-21T02:40:29.417Z,63.40
2019-04-21T02:43:07.504Z,63.90
2019-04-21T02:50:31.593Z,63.00
2019-04-21T02:55:36.715Z,62.80
2019-04-21T02:58:17.898Z,62.50
2019-04-21T03:01:14.523Z,62.90
2019-04-21T03:03:54.811Z,63.20
2019-04-21T03:06:59.833Z,63.00
2019-04-21T03:09:18.345Z,63.60
2019-04-21T03:11:56.475Z,63.00
2019-04-21T03:14:30.985Z,63.60
2019-04-21T03:16:47.065Z,63.70
2019-04-21T03:19:36.475Z,62.90
2019-04-21T03:22:07.212Z,62.70
2019-04-21T03:24:50.678Z,62.30
2019-04-21T03:29:35.005Z,61.60
2019-04-21T03:32:35.355Z,61.20
2019-04-21T03:35:18.947Z,60.70
2019-04-21T03:37:23.488Z,60.20
2019-04-21T03:39:56.051Z,60.30
2019-04-21T03:42:28.876Z,60.30
2019-04-21T03:44:59.110Z,59.60
2019-04-21T03:52:36.070Z,59.80
2019-04-21T04:01:06.004Z,56.70
2019-04-21T04:04:08.440Z,55.10
2019-04-21T04:06:56.529Z,53.20
2019-04-21T04:11:54.793Z,52.50
2019-04-21T04:27:19.940Z,49.30
2019-04-21T04:29:39.774Z,49.10
2019-04-21T04:32:14.610Z,48.40
2019-04-21T04:40:24.883Z,46.10
2019-04-21T04:43:09.022Z,45.20
2019-04-21T04:45:41.656Z,43.50
2019-04-21T04:48:05.522Z,42.90
2019-04-21T04:50:55.355Z,42.60
2019-04-21T04:53:17.901Z,41.80
2019-04-21T04:55:46.999Z,42.30
2019-04-21T04:58:56.282Z,41.80
2019-04-21T05:00:58.096Z,41.50
2019-04-21T05:11:39.829Z,41.50
2019-04-21T05:16:41.105Z,41.40
2019-04-21T05:19:10.563Z,40.40
2019-04-21T05:23:55.783Z,39.80
2019-04-21T05:26:29.899Z,39.10
2019-04-21T05:28:59.326Z,39.70
2019-04-21T05:31:52.406Z,39.80
2019-04-21T05:34:26.012Z,38.60
2019-04-21T05:37:10.388Z,37.90
2019-04-21T05:39:51.024Z,38.10
2019-04-21T05:42:15.434Z,36.70
2019-04-21T05:45:05.457Z,37.50
2019-04-21T05:47:39.625Z,37.80
2019-04-21T05:50:11.542Z,39.30
2019-04-21T05:52:49.725Z,39.80
2019-04-21T05:58:02.531Z,38.60
2019-04-21T06:00:59.167Z,38.20
2019-04-21T06:03:09.869Z,39.00
2019-04-21T06:08:16.075Z,38.10
2019-04-21T06:10:47.674Z,38.40
2019-04-21T06:13:26.886Z,36.80
2019-04-21T06:15:56.502Z,36.70
2019-04-21T06:18:27.250Z,35.90
2019-04-21T06:21:16.526Z,35.90
2019-04-21T06:23:35.089Z,34.40
2019-04-21T06:26:20.037Z,33.00
2019-04-21T06:31:31.784Z,32.40
2019-04-21T06:33:43.138Z,33.10
2019-04-21T06:36:47.097Z,34.00
2019-04-21T06:44:12.931Z,32.30
2019-04-21T06:46:43.697Z,30.40
2019-04-21T06:49:08.588Z,31.70
2019-04-21T06:54:19.596Z,32.70
2019-04-21T06:57:00.802Z,32.40
2019-04-21T06:59:20.793Z,33.00
2019-04-21T07:02:05.322Z,34.50
2019-04-21T07:06:59.452Z,35.10
2019-04-21T07:09:31.657Z,33.30
2019-04-21T07:14:49.433Z,34.20
2019-04-21T07:17:11.444Z,36.70
2019-04-21T07:22:14.571Z,38.50
2019-04-21T07:24:46.120Z,41.30
2019-04-21T07:29:47.527Z,43.00
2019-04-21T07:32:18.375Z,39.00
2019-04-21T07:34:52.173Z,40.20
2019-04-21T07:39:52.762Z,41.50
2019-04-21T07:42:23.791Z,40.70
2019-04-21T07:44:52.258Z,37.00
2019-04-21T07:50:14.711Z,34.60
2019-04-21T07:57:52.645Z,30.00
2019-04-21T08:05:33.974Z,28.50
2019-04-21T08:13:17.333Z,37.00
2019-04-21T08:18:12.760Z,34.80
2019-04-21T08:20:45.255Z,36.50
2019-04-21T08:23:21.626Z,37.40
2019-04-21T08:26:04.662Z,37.90
2019-04-21T08:30:55.493Z,37.30
2019-04-21T08:33:32.506Z,40.70
2019-04-21T08:38:31.313Z,37.70
2019-04-21T08:41:01.967Z,36.10
2019-04-21T08:56:31.997Z,33.70
2019-04-21T09:09:29.396Z,36.50
2019-04-21T09:17:02.929Z,34.00
2019-04-21T09:19:48.336Z,37.00
2019-04-21T09:22:09.553Z,37.60
2019-04-21T09:24:41.213Z,37.20
2019-04-21T09:27:08.502Z,37.30
2019-04-21T09:29:35.466Z,37.40
2019-04-21T09:32:00.023Z,37.50
2019-04-21T09:34:36.932Z,37.10
2019-04-21T09:39:41.819Z,37.40
2019-04-21T09:42:06.988Z,37.90
2019-04-21T09:44:40.918Z,37.30
2019-04-21T09:47:12.118Z,37.70
2019-04-21T09:49:43.293Z,37.10
2019-04-21T09:52:20.908Z,36.70
2019-04-21T09:54:56.602Z,36.60
2019-04-21T09:57:30.014Z,35.80
2019-04-21T10:00:02.478Z,36.10
2019-04-21T10:02:34.295Z,36.50
2019-04-21T10:04:55.808Z,36.10
2019-04-21T10:07:34.364Z,36.90
2019-04-21T10:09:59.900Z,39.20
2019-04-21T10:12:30.990Z,38.90
2019-04-21T10:15:01.953Z,38.90
2019-04-21T10:17:41.652Z,38.40
2019-04-21T10:20:13.794Z,38.30
2019-04-21T10:22:44.820Z,38.80
2019-04-21T10:25:16.660Z,38.50
2019-04-21T10:30:18.103Z,38.00
2019-04-21T10:35:21.124Z,38.50
2019-04-21T10:38:05.306Z,37.70
2019-04-21T10:40:23.757Z,37.60
2019-04-21T10:47:56.862Z,37.90
2019-04-21T10:50:28.733Z,39.80
2019-04-21T10:53:06.934Z,39.70
2019-04-21T10:55:54.085Z,39.10
2019-04-21T10:58:16.538Z,39.30
2019-04-21T11:00:48.431Z,39.50
2019-04-21T11:03:33.301Z,40.30
2019-04-21T11:06:06.586Z,40.40
2019-04-21T11:08:43.197Z,41.20
2019-04-21T11:11:10.079Z,42.10
2019-04-21T11:13:41.057Z,42.10
2019-04-21T11:16:12.986Z,41.80
2019-04-21T11:18:44.142Z,42.30
2019-04-21T11:21:15.085Z,42.80
2019-04-21T11:23:45.937Z,42.60
2019-04-21T11:26:17.901Z,42.80
2019-04-21T11:28:48.958Z,42.10
2019-04-21T11:31:21.185Z,42.30
2019-04-21T11:33:53.231Z,42.90
2019-04-21T11:36:24.995Z,42.70
2019-04-21T11:39:24.688Z,42.80
2019-04-21T11:44:23.172Z,42.70
2019-04-21T11:46:54.361Z,41.50
2019-04-21T11:49:30.220Z,42.20
2019-04-21T11:51:58.794Z,42.30
2019-04-21T11:54:30.937Z,42.40
2019-04-21T11:57:11.797Z,42.30
2019-04-21T11:59:35.589Z,42.80
2019-04-21T12:02:07.877Z,43.40
2019-04-21T12:04:39.327Z,43.90
2019-04-21T12:07:11.380Z,44.20
2019-04-21T12:09:43.691Z,44.30
2019-04-21T12:12:15.008Z,44.40
2019-04-21T12:14:45.942Z,45.00
2019-04-21T12:17:18.247Z,45.00
2019-04-21T12:19:50.666Z,44.70
2019-04-21T12:22:26.775Z,44.60
2019-04-21T12:24:55.495Z,44.80
2019-04-21T12:27:27.739Z,44.60
2019-04-21T12:29:59.673Z,44.30
2019-04-21T12:32:53.828Z,43.30
2019-04-21T12:35:26.134Z,41.80
2019-04-21T12:37:58.414Z,41.90
2019-04-21T12:40:30.553Z,41.70
2019-04-21T12:43:02.697Z,42.40
2019-04-21T12:45:33.986Z,42.80
2019-04-21T12:48:06.063Z,43.10
2019-04-21T12:50:37.048Z,43.20
2019-04-21T12:53:07.929Z,43.90
2019-04-21T12:55:42.789Z,43.20
2019-04-21T12:58:11.175Z,43.90
2019-04-21T13:00:42.887Z,43.90
2019-04-21T13:03:14.129Z,43.90
2019-04-21T13:05:47.439Z,44.40
2019-04-21T13:08:19.700Z,44.60
2019-04-21T13:10:52.000Z,44.00
2019-04-21T13:13:23.961Z,44.70
2019-04-21T13:15:55.765Z,45.60
2019-04-21T13:18:27.038Z,44.80
2019-04-21T13:21:00.903Z,45.40
2019-04-21T13:23:31.280Z,45.50
2019-04-21T13:26:04.384Z,45.80
2019-04-21T13:28:34.663Z,45.60
2019-04-21T13:31:06.493Z,45.30
2019-04-21T13:33:37.756Z,45.50
2019-04-21T13:36:09.700Z,45.80
2019-04-21T13:39:25.973Z,45.40
2019-04-21T13:41:42.994Z,45.40
2019-04-21T13:44:15.671Z,45.60
2019-04-21T13:46:47.297Z,45.40
2019-04-21T13:49:19.199Z,45.60
2019-04-21T13:51:50.156Z,45.30
2019-04-21T13:54:21.892Z,45.40
2019-04-21T13:56:54.265Z,45.50
2019-04-21T13:59:26.453Z,45.50
2019-04-21T14:01:58.417Z,45.40
2019-04-21T14:04:29.620Z,45.20
2019-04-21T14:07:02.503Z,44.90
2019-04-21T14:09:43.810Z,45.10
2019-04-21T14:14:38.635Z,44.40
2019-04-21T14:17:10.783Z,44.40
2019-04-21T14:19:43.539Z,43.40
2019-04-21T14:22:16.015Z,42.60
2019-04-21T14:24:48.032Z,42.50
2019-04-21T14:27:18.776Z,42.40
2019-04-21T14:29:49.598Z,42.10
2019-04-21T14:32:20.535Z,41.90
2019-04-21T14:34:53.867Z,42.70
2019-04-21T14:37:24.691Z,41.70
2019-04-21T14:40:03.978Z,41.70
2019-04-21T14:42:29.733Z,41.70
2019-04-21T14:47:56.714Z,41.70
2019-04-21T14:50:46.329Z,42.30
2019-04-21T14:53:23.535Z,41.60
2019-04-21T15:01:02.000Z,41.10
2019-04-21T15:03:34.225Z,41.60
2019-04-21T15:06:05.598Z,41.00
2019-04-21T15:08:37.410Z,40.50
2019-04-21T15:11:08.663Z,40.20
2019-04-21T15:13:39.768Z,40.10
2019-04-21T15:16:11.010Z,41.40
2019-04-21T15:18:41.885Z,41.00
2019-04-21T15:21:13.247Z,41.30
2019-04-21T15:23:46.519Z,42.70
2019-04-21T15:26:19.945Z,41.70
2019-04-21T15:28:51.105Z,41.70
2019-04-21T15:33:54.918Z,42.00
2019-04-21T15:36:27.235Z,41.80
2019-04-21T15:38:58.172Z,41.90
2019-04-21T15:41:30.174Z,43.90
2019-04-21T15:44:03.094Z,44.80
2019-04-21T15:46:35.193Z,45.40
2019-04-21T15:49:07.027Z,46.40
2019-04-21T15:51:38.058Z,46.90
2019-04-21T15:54:09.240Z,47.60
2019-04-21T15:56:48.961Z,48.30
2019-04-21T16:12:25.708Z,49.10
2019-04-21T16:14:56.641Z,50.60
2019-04-21T16:17:29.517Z,51.40
2019-04-21T16:20:02.058Z,51.50
2019-04-21T16:22:34.825Z,50.80
2019-04-21T16:27:37.217Z,51.10
2019-04-21T16:30:10.004Z,51.40
2019-04-21T16:32:41.995Z,52.20
2019-04-21T16:35:15.001Z,52.40
2019-04-21T16:37:45.814Z,53.00
2019-04-21T16:40:17.206Z,53.40
2019-04-21T16:42:48.238Z,53.80
2019-04-21T16:45:21.019Z,54.50
2019-04-21T16:47:53.764Z,54.80
2019-04-21T16:50:25.718Z,54.70
2019-04-21T16:53:03.909Z,54.60
2019-04-21T16:55:46.950Z,55.30
2019-04-21T16:58:45.652Z,55.50
2019-04-21T17:01:24.196Z,55.70
2019-04-21T17:03:55.476Z,56.10
2019-04-21T17:06:27.039Z,56.50
2019-04-21T17:08:58.966Z,56.30
2019-04-21T17:11:34.777Z,56.70
2019-04-21T17:14:03.580Z,56.80
2019-04-21T17:17:03.842Z,56.40
2019-04-21T17:19:14.664Z,56.80
2019-04-21T17:21:39.630Z,56.90
2019-04-21T17:24:12.704Z,57.20
2019-04-21T17:26:44.673Z,57.30
2019-04-21T17:29:16.862Z,57.70
2019-04-21T17:31:47.791Z,57.90
2019-04-21T17:34:22.921Z,58.60
2019-04-21T17:37:45.866Z,58.50
2019-04-21T17:48:36.632Z,59.70
2019-04-21T17:56:24.502Z,60.10
2019-04-21T18:02:36.955Z,60.00
2019-04-21T18:06:02.342Z,60.70
2019-04-21T18:08:46.224Z,61.00
2019-04-21T18:11:22.786Z,60.50
2019-04-21T18:13:47.285Z,60.60
2019-04-21T18:16:41.014Z,60.80
2019-04-21T18:19:51.396Z,60.80
2019-04-21T18:22:59.069Z,61.00
2019-04-21T18:25:38.494Z,61.20
2019-04-21T18:27:58.872Z,61.70
2019-04-21T18:49:54.427Z,61.90
2019-04-21T18:52:55.368Z,64.40
2019-04-21T18:55:16.244Z,64.90
2019-04-21T18:57:42.761Z,65.10
2019-04-21T19:00:18.946Z,65.20
2019-04-21T19:02:46.518Z,65.40
2019-04-21T19:05:20.733Z,65.20
2019-04-21T19:08:04.438Z,65.10
2019-04-21T19:10:40.933Z,65.30
2019-04-21T19:13:41.963Z,65.40
2019-04-21T19:16:01.400Z,65.50
2019-04-21T19:18:39.799Z,65.30
2019-04-21T19:20:49.014Z,65.30
2019-04-21T19:23:33.975Z,65.50
2019-04-21T19:25:55.595Z,65.80
2019-04-21T19:28:24.629Z,65.80
2019-04-21T19:31:05.139Z,66.00
2019-04-21T19:33:31.007Z,65.90
2019-04-21T19:35:47.559Z,66.00
2019-04-21T19:38:31.724Z,66.10
2019-04-21T19:41:09.325Z,65.90
2019-04-21T19:43:45.921Z,66.20
2019-04-21T19:46:14.114Z,66.20
2019-04-21T19:48:56.659Z,66.40
2019-04-21T19:51:15.433Z,66.20
2019-04-21T19:53:47.042Z,66.00
2019-04-21T19:56:06.007Z,66.00
2019-04-21T19:58:40.491Z,66.50
2019-04-21T20:01:09.731Z,66.50
2019-04-21T20:03:43.162Z,66.00
2019-04-21T20:06:28.794Z,65.70
2019-04-21T20:09:07.002Z,65.40
2019-04-21T20:11:34.619Z,64.30
2019-04-21T20:14:37.659Z,64.10
2019-04-21T20:16:41.713Z,62.80
2019-04-21T20:19:01.385Z,62.80
2019-04-21T20:21:28.951Z,62.40
2019-04-21T20:24:05.035Z,62.10
2019-04-21T20:26:37.917Z,61.70
2019-04-21T20:29:20.847Z,61.20
2019-04-21T20:31:57.590Z,61.40
2019-04-21T20:34:34.154Z,60.50
2019-04-21T20:37:06.185Z,61.20
2019-04-21T20:39:20.877Z,61.10
2019-04-21T20:42:04.147Z,61.20
2019-04-21T20:44:39.094Z,60.30
2019-04-21T20:47:03.917Z,60.20
2019-04-21T20:49:37.609Z,60.00
2019-04-21T20:52:17.529Z,59.40
2019-04-21T20:54:45.208Z,58.40
2019-04-21T20:57:18.995Z,57.70
2019-04-21T20:59:44.020Z,57.00
2019-04-21T21:02:19.990Z,56.50
2019-04-21T21:04:45.739Z,56.40
2019-04-21T21:07:40.470Z,56.40
2019-04-21T21:10:09.126Z,56.40
2019-04-21T21:12:44.490Z,56.40
2019-04-21T21:15:02.591Z,56.30
2019-04-21T21:17:48.391Z,56.10
2019-04-21T21:20:16.278Z,55.90
2019-04-21T21:22:44.257Z,56.20
2019-04-21T21:25:18.730Z,55.40
2019-04-21T21:27:43.623Z,55.50
2019-04-21T21:30:21.334Z,55.20
2019-04-21T21:32:57.366Z,54.70
2019-04-21T21:35:24.771Z,54.70
2019-04-21T21:37:59.682Z,54.60
2019-04-21T21:40:34.875Z,54.20
2019-04-21T21:42:48.073Z,54.00
2019-04-21T21:45:22.324Z,54.20
2019-04-21T21:48:11.503Z,54.40
2019-04-21T21:50:35.939Z,53.70
2019-04-21T21:53:06.568Z,53.90
2019-04-21T21:55:33.978Z,53.30
2019-04-21T21:58:04.375Z,53.40
2019-04-21T22:00:42.029Z,53.30
2019-04-21T22:03:18.844Z,53.50
2019-04-21T22:05:48.902Z,53.00
2019-04-21T22:08:16.258Z,53.30
2019-04-21T22:10:47.407Z,53.30
2019-04-21T22:13:21.579Z,53.00
2019-04-21T22:15:56.514Z,53.10
2019-04-21T22:18:39.138Z,52.70
2019-04-21T22:21:09.422Z,53.00
2019-04-21T22:23:39.908Z,52.70
2019-04-21T22:26:03.143Z,53.00
2019-04-21T22:28:33.902Z,53.00
2019-04-21T22:31:15.022Z,53.00
2019-04-21T22:33:41.879Z,52.60
2019-04-21T22:36:26.729Z,52.40
2019-04-21T22:38:59.623Z,52.80
2019-04-21T22:41:28.173Z,52.70
2019-04-21T22:43:51.657Z,52.80
2019-04-21T22:46:22.339Z,52.40
2019-04-21T22:48:59.498Z,52.90
2019-04-21T22:51:34.772Z,53.20
2019-04-21T22:53:59.963Z,53.50
2019-04-21T22:56:33.558Z,53.80
2019-04-21T22:59:08.090Z,53.80
2019-04-21T23:01:40.598Z,54.40
2019-04-21T23:04:08.919Z,54.80
2019-04-21T23:06:41.008Z,55.10
2019-04-21T23:09:12.883Z,55.30
2019-04-21T23:11:48.265Z,55.30
2019-04-21T23:14:17.563Z,55.60
2019-04-21T23:17:26.614Z,55.60
2019-04-21T23:19:46.244Z,55.30
2019-04-21T23:22:23.156Z,54.90
2019-04-21T23:24:57.339Z,54.90
2019-04-21T23:27:23.395Z,55.00
2019-04-21T23:30:09.966Z,54.90
2019-04-21T23:32:27.861Z,54.90
2019-04-21T23:34:49.109Z,55.10
2019-04-21T23:37:23.697Z,55.30
2019-04-21T23:40:01.075Z,55.50
2019-04-21T23:42:31.900Z,55.50
2019-04-21T23:44:59.525Z,55.40
2019-04-21T23:47:44.235Z,55.50
2019-04-21T23:50:19.528Z,55.60
2019-04-21T23:52:35.384Z,55.60
2019-04-21T23:55:07.533Z,55.50
2019-04-21T23:57:43.216Z,55.40
